sensor_id;sensor_type;location;lat;lon;timestamp;P1;durP1;ratioP1;P2;durP2;ratioP2
12892;SDS011;6514;48.606;9.222;2022-12-22T00:01:21;1.97;;;1.33;;
12892;SDS011;6514;48.606;9.222;2022-12-22T00:04:07;2.83;;;1.60;;
12892;SDS011;6514;48.606;9.222;2022-12-22T00:06:53;1.70;;;1.20;;
12892;SDS011;6514;48.606;9.222;2022-12-22T00:09:37;1.43;;;1.20;;
12892;SDS011;6514;48.606;9.222;2022-12-22T00:12:23;2.10;;;1.27;;
12892;SDS011;6514;48.606;9.222;2022-12-22T00:15:11;2.33;;;1.37;;
12892;SDS011;6514;48.606;9.222;2022-12-22T00:17:57;1.90;;;1.40;;
12892;SDS011;6514;48.606;9.222;2022-12-22T00:20:42;2.37;;;1.50;;
12892;SDS011;6514;48.606;9.222;2022-12-22T00:23:26;2.33;;;1.53;;
12892;SDS011;6514;48.606;9.222;2022-12-22T00:26:11;1.33;;;1.23;;
12892;SDS011;6514;48.606;9.222;2022-12-22T00:28:56;2.93;;;1.67;;
12892;SDS011;6514;48.606;9.222;2022-12-22T00:31:41;1.50;;;1.40;;
12892;SDS011;6514;48.606;9.222;2022-12-22T00:34:26;2.70;;;1.47;;
12892;SDS011;6514;48.606;9.222;2022-12-22T00:37:11;3.57;;;1.47;;
12892;SDS011;6514;48.606;9.222;2022-12-22T00:39:57;3.00;;;1.57;;
12892;SDS011;6514;48.606;9.222;2022-12-22T00:42:43;2.20;;;1.40;;
12892;SDS011;6514;48.606;9.222;2022-12-22T00:45:29;1.23;;;1.07;;
12892;SDS011;6514;48.606;9.222;2022-12-22T00:48:17;3.00;;;1.10;;
12892;SDS011;6514;48.606;9.222;2022-12-22T00:51:04;1.57;;;1.37;;
12892;SDS011;6514;48.606;9.222;2022-12-22T00:53:50;3.03;;;1.30;;
12892;SDS011;6514;48.606;9.222;2022-12-22T00:56:34;1.60;;;1.50;;
12892;SDS011;6514;48.606;9.222;2022-12-22T00:59:18;1.83;;;1.20;;
12892;SDS011;6514;48.606;9.222;2022-12-22T01:02:05;1.33;;;1.20;;
12892;SDS011;6514;48.606;9.222;2022-12-22T01:04:49;2.10;;;1.47;;
12892;SDS011;6514;48.606;9.222;2022-12-22T01:07:33;1.00;;;1.00;;
12892;SDS011;6514;48.606;9.222;2022-12-22T01:10:18;1.67;;;1.20;;
12892;SDS011;6514;48.606;9.222;2022-12-22T01:13:07;2.10;;;1.30;;
12892;SDS011;6514;48.606;9.222;2022-12-22T01:15:53;1.73;;;1.40;;
12892;SDS011;6514;48.606;9.222;2022-12-22T01:18:39;1.43;;;1.23;;
12892;SDS011;6514;48.606;9.222;2022-12-22T01:21:24;1.93;;;1.20;;
12892;SDS011;6514;48.606;9.222;2022-12-22T01:24:10;3.70;;;1.50;;
12892;SDS011;6514;48.606;9.222;2022-12-22T01:27:00;2.30;;;1.43;;
12892;SDS011;6514;48.606;9.222;2022-12-22T01:29:45;2.23;;;1.47;;
12892;SDS011;6514;48.606;9.222;2022-12-22T01:32:29;1.53;;;1.43;;
12892;SDS011;6514;48.606;9.222;2022-12-22T01:35:20;1.77;;;1.40;;
12892;SDS011;6514;48.606;9.222;2022-12-22T01:38:09;1.53;;;1.20;;
12892;SDS011;6514;48.606;9.222;2022-12-22T01:40:54;1.70;;;1.60;;
12892;SDS011;6514;48.606;9.222;2022-12-22T01:43:40;3.43;;;1.90;;
12892;SDS011;6514;48.606;9.222;2022-12-22T01:46:29;1.50;;;1.20;;
12892;SDS011;6514;48.606;9.222;2022-12-22T01:49:16;2.03;;;1.50;;
12892;SDS011;6514;48.606;9.222;2022-12-22T01:52:08;1.50;;;1.40;;
12892;SDS011;6514;48.606;9.222;2022-12-22T01:54:55;1.83;;;1.53;;
12892;SDS011;6514;48.606;9.222;2022-12-22T01:57:45;1.60;;;1.40;;
12892;SDS011;6514;48.606;9.222;2022-12-22T02:00:33;2.37;;;1.50;;
12892;SDS011;6514;48.606;9.222;2022-12-22T02:03:18;1.87;;;1.40;;
12892;SDS011;6514;48.606;9.222;2022-12-22T02:06:08;1.10;;;1.00;;
12892;SDS011;6514;48.606;9.222;2022-12-22T02:09:07;1.80;;;1.00;;
12892;SDS011;6514;48.606;9.222;2022-12-22T02:12:03;4.00;;;1.20;;
12892;SDS011;6514;48.606;9.222;2022-12-22T02:14:55;2.30;;;1.00;;
12892;SDS011;6514;48.606;9.222;2022-12-22T02:17:49;2.10;;;1.10;;
12892;SDS011;6514;48.606;9.222;2022-12-22T02:20:40;1.13;;;0.80;;
12892;SDS011;6514;48.606;9.222;2022-12-22T02:23:33;3.27;;;1.00;;
12892;SDS011;6514;48.606;9.222;2022-12-22T02:26:37;1.27;;;0.97;;
12892;SDS011;6514;48.606;9.222;2022-12-22T02:29:26;1.80;;;1.20;;
12892;SDS011;6514;48.606;9.222;2022-12-22T02:32:13;2.03;;;1.10;;
12892;SDS011;6514;48.606;9.222;2022-12-22T02:34:57;1.70;;;0.90;;
12892;SDS011;6514;48.606;9.222;2022-12-22T02:37:44;0.83;;;0.77;;
12892;SDS011;6514;48.606;9.222;2022-12-22T02:40:38;1.17;;;1.00;;
12892;SDS011;6514;48.606;9.222;2022-12-22T02:43:37;2.03;;;0.80;;
12892;SDS011;6514;48.606;9.222;2022-12-22T02:46:33;1.23;;;0.90;;
12892;SDS011;6514;48.606;9.222;2022-12-22T02:49:27;0.80;;;0.80;;
12892;SDS011;6514;48.606;9.222;2022-12-22T02:52:15;1.93;;;1.00;;
12892;SDS011;6514;48.606;9.222;2022-12-22T02:55:03;1.23;;;0.80;;
12892;SDS011;6514;48.606;9.222;2022-12-22T02:57:49;1.03;;;0.70;;
12892;SDS011;6514;48.606;9.222;2022-12-22T03:00:36;2.17;;;0.80;;
12892;SDS011;6514;48.606;9.222;2022-12-22T03:03:21;1.83;;;0.90;;
12892;SDS011;6514;48.606;9.222;2022-12-22T03:06:05;1.40;;;0.77;;
12892;SDS011;6514;48.606;9.222;2022-12-22T03:08:50;2.03;;;0.93;;
12892;SDS011;6514;48.606;9.222;2022-12-22T03:11:34;3.57;;;2.10;;
12892;SDS011;6514;48.606;9.222;2022-12-22T03:14:18;1.23;;;0.80;;
12892;SDS011;6514;48.606;9.222;2022-12-22T03:17:03;0.60;;;0.60;;
12892;SDS011;6514;48.606;9.222;2022-12-22T03:19:48;0.83;;;0.70;;
12892;SDS011;6514;48.606;9.222;2022-12-22T03:22:32;3.70;;;0.60;;
12892;SDS011;6514;48.606;9.222;2022-12-22T03:25:16;1.43;;;0.90;;
12892;SDS011;6514;48.606;9.222;2022-12-22T03:28:01;1.27;;;0.80;;
12892;SDS011;6514;48.606;9.222;2022-12-22T03:30:28;0.70;;;0.70;;
12892;SDS011;6514;48.606;9.222;2022-12-22T03:32:56;0.77;;;0.70;;
12892;SDS011;6514;48.606;9.222;2022-12-22T03:35:23;1.00;;;0.70;;
12892;SDS011;6514;48.606;9.222;2022-12-22T03:37:50;1.33;;;0.87;;
12892;SDS011;6514;48.606;9.222;2022-12-22T03:40:18;0.60;;;0.50;;
12892;SDS011;6514;48.606;9.222;2022-12-22T03:42:45;1.20;;;0.60;;
12892;SDS011;6514;48.606;9.222;2022-12-22T03:45:29;2.80;;;0.70;;
12892;SDS011;6514;48.606;9.222;2022-12-22T03:48:17;1.10;;;0.70;;
12892;SDS011;6514;48.606;9.222;2022-12-22T03:50:44;0.70;;;0.70;;
12892;SDS011;6514;48.606;9.222;2022-12-22T03:53:11;1.73;;;0.97;;
12892;SDS011;6514;48.606;9.222;2022-12-22T03:55:38;1.07;;;0.80;;
12892;SDS011;6514;48.606;9.222;2022-12-22T03:58:05;0.70;;;0.70;;
12892;SDS011;6514;48.606;9.222;2022-12-22T04:00:31;0.70;;;0.70;;
12892;SDS011;6514;48.606;9.222;2022-12-22T04:02:58;1.00;;;0.90;;
12892;SDS011;6514;48.606;9.222;2022-12-22T04:05:26;0.50;;;0.50;;
12892;SDS011;6514;48.606;9.222;2022-12-22T04:07:53;1.23;;;0.70;;
12892;SDS011;6514;48.606;9.222;2022-12-22T04:10:20;2.00;;;0.80;;
12892;SDS011;6514;48.606;9.222;2022-12-22T04:13:05;1.10;;;0.90;;
12892;SDS011;6514;48.606;9.222;2022-12-22T04:15:32;1.27;;;0.97;;
12892;SDS011;6514;48.606;9.222;2022-12-22T04:17:59;1.20;;;1.10;;
12892;SDS011;6514;48.606;9.222;2022-12-22T04:20:27;0.73;;;0.73;;
12892;SDS011;6514;48.606;9.222;2022-12-22T04:22:55;1.20;;;0.83;;
12892;SDS011;6514;48.606;9.222;2022-12-22T04:25:22;2.50;;;2.20;;
12892;SDS011;6514;48.606;9.222;2022-12-22T04:27:49;2.93;;;1.90;;
12892;SDS011;6514;48.606;9.222;2022-12-22T04:30:17;4.70;;;2.10;;
12892;SDS011;6514;48.606;9.222;2022-12-22T04:32:44;3.37;;;2.50;;
12892;SDS011;6514;48.606;9.222;2022-12-22T04:35:11;2.33;;;1.83;;
12892;SDS011;6514;48.606;9.222;2022-12-22T04:37:39;1.47;;;0.93;;
12892;SDS011;6514;48.606;9.222;2022-12-22T04:40:06;1.73;;;0.90;;
12892;SDS011;6514;48.606;9.222;2022-12-22T04:42:33;1.83;;;0.80;;
12892;SDS011;6514;48.606;9.222;2022-12-22T04:45:00;2.50;;;1.00;;
12892;SDS011;6514;48.606;9.222;2022-12-22T04:47:27;3.33;;;2.00;;
12892;SDS011;6514;48.606;9.222;2022-12-22T04:49:54;1.50;;;0.97;;
12892;SDS011;6514;48.606;9.222;2022-12-22T04:52:21;3.33;;;0.77;;
12892;SDS011;6514;48.606;9.222;2022-12-22T04:54:49;2.10;;;1.23;;
12892;SDS011;6514;48.606;9.222;2022-12-22T04:57:17;2.63;;;0.80;;
12892;SDS011;6514;48.606;9.222;2022-12-22T04:59:45;2.10;;;0.90;;
12892;SDS011;6514;48.606;9.222;2022-12-22T05:02:12;2.47;;;0.80;;
12892;SDS011;6514;48.606;9.222;2022-12-22T05:04:39;2.30;;;0.83;;
12892;SDS011;6514;48.606;9.222;2022-12-22T05:07:06;3.37;;;1.27;;
12892;SDS011;6514;48.606;9.222;2022-12-22T05:09:33;3.60;;;0.90;;
12892;SDS011;6514;48.606;9.222;2022-12-22T05:12:01;5.17;;;1.33;;
12892;SDS011;6514;48.606;9.222;2022-12-22T05:14:49;3.77;;;1.00;;
12892;SDS011;6514;48.606;9.222;2022-12-22T05:17:15;4.10;;;1.20;;
12892;SDS011;6514;48.606;9.222;2022-12-22T05:19:42;3.97;;;1.47;;
12892;SDS011;6514;48.606;9.222;2022-12-22T05:22:09;3.30;;;1.20;;
12892;SDS011;6514;48.606;9.222;2022-12-22T05:24:36;5.20;;;1.70;;
12892;SDS011;6514;48.606;9.222;2022-12-22T05:27:05;6.13;;;2.13;;
12892;SDS011;6514;48.606;9.222;2022-12-22T05:29:32;5.30;;;1.30;;
12892;SDS011;6514;48.606;9.222;2022-12-22T05:31:59;3.43;;;1.20;;
12892;SDS011;6514;48.606;9.222;2022-12-22T05:34:25;4.10;;;1.20;;
12892;SDS011;6514;48.606;9.222;2022-12-22T05:36:52;3.00;;;1.10;;
12892;SDS011;6514;48.606;9.222;2022-12-22T05:39:19;3.27;;;1.03;;
12892;SDS011;6514;48.606;9.222;2022-12-22T05:41:46;3.47;;;1.53;;
12892;SDS011;6514;48.606;9.222;2022-12-22T05:44:14;5.37;;;1.30;;
12892;SDS011;6514;48.606;9.222;2022-12-22T05:46:41;4.70;;;1.40;;
12892;SDS011;6514;48.606;9.222;2022-12-22T05:49:08;3.70;;;1.63;;
12892;SDS011;6514;48.606;9.222;2022-12-22T05:51:35;5.27;;;1.37;;
12892;SDS011;6514;48.606;9.222;2022-12-22T05:54:02;5.70;;;1.30;;
12892;SDS011;6514;48.606;9.222;2022-12-22T05:56:29;4.33;;;1.27;;
12892;SDS011;6514;48.606;9.222;2022-12-22T05:58:55;4.87;;;1.40;;
12892;SDS011;6514;48.606;9.222;2022-12-22T06:01:24;5.13;;;1.80;;
12892;SDS011;6514;48.606;9.222;2022-12-22T06:03:51;4.23;;;1.47;;
12892;SDS011;6514;48.606;9.222;2022-12-22T06:06:17;5.80;;;1.90;;
12892;SDS011;6514;48.606;9.222;2022-12-22T06:08:44;4.53;;;1.20;;
12892;SDS011;6514;48.606;9.222;2022-12-22T06:11:11;3.77;;;1.50;;
12892;SDS011;6514;48.606;9.222;2022-12-22T06:13:42;4.83;;;1.30;;
12892;SDS011;6514;48.606;9.222;2022-12-22T06:16:09;6.63;;;1.33;;
12892;SDS011;6514;48.606;9.222;2022-12-22T06:18:37;5.67;;;1.60;;
12892;SDS011;6514;48.606;9.222;2022-12-22T06:21:04;3.47;;;1.60;;
12892;SDS011;6514;48.606;9.222;2022-12-22T06:23:31;2.63;;;1.30;;
12892;SDS011;6514;48.606;9.222;2022-12-22T06:25:58;4.13;;;1.30;;
12892;SDS011;6514;48.606;9.222;2022-12-22T06:28:26;5.87;;;2.00;;
12892;SDS011;6514;48.606;9.222;2022-12-22T06:30:54;4.40;;;1.60;;
12892;SDS011;6514;48.606;9.222;2022-12-22T06:33:21;5.07;;;1.40;;
12892;SDS011;6514;48.606;9.222;2022-12-22T06:35:49;8.97;;;2.07;;
12892;SDS011;6514;48.606;9.222;2022-12-22T06:38:16;6.03;;;1.60;;
12892;SDS011;6514;48.606;9.222;2022-12-22T06:40:43;7.40;;;1.70;;
12892;SDS011;6514;48.606;9.222;2022-12-22T06:43:10;3.67;;;1.60;;
12892;SDS011;6514;48.606;9.222;2022-12-22T06:45:36;6.43;;;2.70;;
12892;SDS011;6514;48.606;9.222;2022-12-22T06:48:05;8.23;;;1.90;;
12892;SDS011;6514;48.606;9.222;2022-12-22T06:50:32;6.07;;;1.90;;
12892;SDS011;6514;48.606;9.222;2022-12-22T06:53:02;6.00;;;1.60;;
12892;SDS011;6514;48.606;9.222;2022-12-22T06:55:29;3.97;;;1.60;;
12892;SDS011;6514;48.606;9.222;2022-12-22T06:57:56;6.80;;;2.23;;
12892;SDS011;6514;48.606;9.222;2022-12-22T07:00:23;6.23;;;1.83;;
12892;SDS011;6514;48.606;9.222;2022-12-22T07:02:50;4.07;;;1.90;;
12892;SDS011;6514;48.606;9.222;2022-12-22T07:05:17;9.03;;;2.70;;
12892;SDS011;6514;48.606;9.222;2022-12-22T07:07:44;7.83;;;2.50;;
12892;SDS011;6514;48.606;9.222;2022-12-22T07:10:12;9.77;;;2.60;;
12892;SDS011;6514;48.606;9.222;2022-12-22T07:12:39;5.00;;;1.80;;
12892;SDS011;6514;48.606;9.222;2022-12-22T07:15:06;5.60;;;1.90;;
12892;SDS011;6514;48.606;9.222;2022-12-22T07:17:34;6.40;;;2.20;;
12892;SDS011;6514;48.606;9.222;2022-12-22T07:20:01;5.47;;;1.63;;
12892;SDS011;6514;48.606;9.222;2022-12-22T07:22:29;7.83;;;2.10;;
12892;SDS011;6514;48.606;9.222;2022-12-22T07:24:55;5.37;;;1.70;;
12892;SDS011;6514;48.606;9.222;2022-12-22T07:27:24;4.43;;;1.53;;
12892;SDS011;6514;48.606;9.222;2022-12-22T07:29:51;6.07;;;2.07;;
12892;SDS011;6514;48.606;9.222;2022-12-22T07:32:17;6.77;;;1.93;;
12892;SDS011;6514;48.606;9.222;2022-12-22T07:34:44;6.03;;;1.60;;
12892;SDS011;6514;48.606;9.222;2022-12-22T07:37:11;5.67;;;1.97;;
12892;SDS011;6514;48.606;9.222;2022-12-22T07:39:38;7.83;;;1.70;;
12892;SDS011;6514;48.606;9.222;2022-12-22T07:42:05;6.30;;;1.90;;
12892;SDS011;6514;48.606;9.222;2022-12-22T07:44:51;3.77;;;1.53;;
12892;SDS011;6514;48.606;9.222;2022-12-22T07:47:18;3.50;;;1.23;;
12892;SDS011;6514;48.606;9.222;2022-12-22T07:49:45;9.83;;;1.63;;
12892;SDS011;6514;48.606;9.222;2022-12-22T07:52:30;7.40;;;1.87;;
12892;SDS011;6514;48.606;9.222;2022-12-22T07:54:57;6.17;;;2.10;;
12892;SDS011;6514;48.606;9.222;2022-12-22T07:57:24;6.20;;;1.87;;
12892;SDS011;6514;48.606;9.222;2022-12-22T07:59:52;7.10;;;2.20;;
12892;SDS011;6514;48.606;9.222;2022-12-22T08:02:19;8.20;;;2.23;;
12892;SDS011;6514;48.606;9.222;2022-12-22T08:04:46;6.63;;;1.63;;
12892;SDS011;6514;48.606;9.222;2022-12-22T08:07:15;6.47;;;1.80;;
12892;SDS011;6514;48.606;9.222;2022-12-22T08:09:42;7.57;;;2.60;;
12892;SDS011;6514;48.606;9.222;2022-12-22T08:12:09;9.07;;;2.40;;
12892;SDS011;6514;48.606;9.222;2022-12-22T08:14:36;8.13;;;2.30;;
12892;SDS011;6514;48.606;9.222;2022-12-22T08:17:04;6.30;;;2.50;;
12892;SDS011;6514;48.606;9.222;2022-12-22T08:19:31;8.03;;;2.90;;
12892;SDS011;6514;48.606;9.222;2022-12-22T08:21:58;8.07;;;2.43;;
12892;SDS011;6514;48.606;9.222;2022-12-22T08:24:26;6.30;;;2.03;;
12892;SDS011;6514;48.606;9.222;2022-12-22T08:26:53;4.27;;;1.80;;
12892;SDS011;6514;48.606;9.222;2022-12-22T08:29:25;5.77;;;2.27;;
12892;SDS011;6514;48.606;9.222;2022-12-22T08:31:54;9.77;;;3.10;;
12892;SDS011;6514;48.606;9.222;2022-12-22T08:34:23;10.27;;;2.97;;
12892;SDS011;6514;48.606;9.222;2022-12-22T08:36:50;9.43;;;2.70;;
12892;SDS011;6514;48.606;9.222;2022-12-22T08:39:22;7.43;;;2.43;;
12892;SDS011;6514;48.606;9.222;2022-12-22T08:41:51;8.00;;;2.27;;
12892;SDS011;6514;48.606;9.222;2022-12-22T08:44:19;10.27;;;2.40;;
12892;SDS011;6514;48.606;9.222;2022-12-22T08:46:48;6.13;;;2.00;;
12892;SDS011;6514;48.606;9.222;2022-12-22T08:49:16;5.93;;;1.87;;
12892;SDS011;6514;48.606;9.222;2022-12-22T08:51:44;6.30;;;1.50;;
12892;SDS011;6514;48.606;9.222;2022-12-22T08:54:12;7.40;;;1.63;;
12892;SDS011;6514;48.606;9.222;2022-12-22T08:56:39;5.40;;;1.70;;
12892;SDS011;6514;48.606;9.222;2022-12-22T08:59:06;2.70;;;1.60;;
12892;SDS011;6514;48.606;9.222;2022-12-22T09:01:34;5.77;;;1.60;;
12892;SDS011;6514;48.606;9.222;2022-12-22T09:04:03;5.20;;;1.47;;
12892;SDS011;6514;48.606;9.222;2022-12-22T09:06:31;3.37;;;1.30;;
12892;SDS011;6514;48.606;9.222;2022-12-22T09:09:01;6.53;;;1.53;;
12892;SDS011;6514;48.606;9.222;2022-12-22T09:11:30;2.63;;;1.10;;
12892;SDS011;6514;48.606;9.222;2022-12-22T09:13:57;4.23;;;1.30;;
12892;SDS011;6514;48.606;9.222;2022-12-22T09:16:26;5.60;;;1.40;;
12892;SDS011;6514;48.606;9.222;2022-12-22T09:18:55;5.03;;;1.60;;
12892;SDS011;6514;48.606;9.222;2022-12-22T09:21:22;2.80;;;1.10;;
12892;SDS011;6514;48.606;9.222;2022-12-22T09:23:49;3.17;;;1.20;;
12892;SDS011;6514;48.606;9.222;2022-12-22T09:26:18;5.50;;;1.47;;
12892;SDS011;6514;48.606;9.222;2022-12-22T09:28:47;4.70;;;1.33;;
12892;SDS011;6514;48.606;9.222;2022-12-22T09:31:14;5.23;;;1.77;;
12892;SDS011;6514;48.606;9.222;2022-12-22T09:33:41;4.33;;;1.20;;
12892;SDS011;6514;48.606;9.222;2022-12-22T09:36:09;5.07;;;1.60;;
12892;SDS011;6514;48.606;9.222;2022-12-22T09:38:38;5.10;;;1.97;;
12892;SDS011;6514;48.606;9.222;2022-12-22T09:41:06;7.57;;;2.10;;
12892;SDS011;6514;48.606;9.222;2022-12-22T09:43:36;6.83;;;1.90;;
12892;SDS011;6514;48.606;9.222;2022-12-22T09:46:03;7.67;;;1.80;;
12892;SDS011;6514;48.606;9.222;2022-12-22T09:48:33;6.77;;;2.27;;
12892;SDS011;6514;48.606;9.222;2022-12-22T09:51:02;5.27;;;1.50;;
12892;SDS011;6514;48.606;9.222;2022-12-22T09:53:29;7.13;;;1.27;;
12892;SDS011;6514;48.606;9.222;2022-12-22T09:55:57;6.67;;;2.00;;
12892;SDS011;6514;48.606;9.222;2022-12-22T09:58:25;7.87;;;1.90;;
12892;SDS011;6514;48.606;9.222;2022-12-22T10:00:57;7.23;;;2.17;;
12892;SDS011;6514;48.606;9.222;2022-12-22T10:03:33;7.63;;;2.23;;
12892;SDS011;6514;48.606;9.222;2022-12-22T10:06:09;4.83;;;1.43;;
12892;SDS011;6514;48.606;9.222;2022-12-22T10:08:43;3.97;;;1.47;;
12892;SDS011;6514;48.606;9.222;2022-12-22T10:11:12;8.13;;;2.50;;
12892;SDS011;6514;48.606;9.222;2022-12-22T10:13:40;6.43;;;1.83;;
12892;SDS011;6514;48.606;9.222;2022-12-22T10:16:21;8.93;;;2.33;;
12892;SDS011;6514;48.606;9.222;2022-12-22T10:19:00;9.07;;;2.70;;
12892;SDS011;6514;48.606;9.222;2022-12-22T10:21:39;9.33;;;2.70;;
12892;SDS011;6514;48.606;9.222;2022-12-22T10:24:14;9.47;;;1.97;;
12892;SDS011;6514;48.606;9.222;2022-12-22T10:26:59;8.10;;;2.20;;
12892;SDS011;6514;48.606;9.222;2022-12-22T10:29:30;7.53;;;2.40;;
12892;SDS011;6514;48.606;9.222;2022-12-22T10:32:01;7.80;;;2.40;;
12892;SDS011;6514;48.606;9.222;2022-12-22T10:34:28;7.23;;;1.93;;
12892;SDS011;6514;48.606;9.222;2022-12-22T10:36:56;7.33;;;2.00;;
12892;SDS011;6514;48.606;9.222;2022-12-22T10:39:26;2.43;;;1.33;;
12892;SDS011;6514;48.606;9.222;2022-12-22T10:41:56;5.70;;;1.63;;
12892;SDS011;6514;48.606;9.222;2022-12-22T10:44:32;4.97;;;1.67;;
12892;SDS011;6514;48.606;9.222;2022-12-22T10:47:13;6.07;;;1.73;;
12892;SDS011;6514;48.606;9.222;2022-12-22T10:49:43;8.53;;;1.97;;
12892;SDS011;6514;48.606;9.222;2022-12-22T10:52:13;7.63;;;1.77;;
12892;SDS011;6514;48.606;9.222;2022-12-22T10:54:42;6.70;;;1.83;;
12892;SDS011;6514;48.606;9.222;2022-12-22T10:59:56;6.83;;;1.60;;
12892;SDS011;6514;48.606;9.222;2022-12-22T11:02:27;4.47;;;2.00;;
12892;SDS011;6514;48.606;9.222;2022-12-22T11:05:00;6.83;;;1.97;;
12892;SDS011;6514;48.606;9.222;2022-12-22T11:07:30;7.40;;;1.73;;
12892;SDS011;6514;48.606;9.222;2022-12-22T11:09:58;5.43;;;1.80;;
12892;SDS011;6514;48.606;9.222;2022-12-22T11:12:28;6.53;;;1.97;;
12892;SDS011;6514;48.606;9.222;2022-12-22T11:15:05;5.07;;;1.67;;
12892;SDS011;6514;48.606;9.222;2022-12-22T11:17:44;7.97;;;2.00;;
12892;SDS011;6514;48.606;9.222;2022-12-22T11:20:26;10.20;;;2.10;;
12892;SDS011;6514;48.606;9.222;2022-12-22T11:23:02;5.97;;;1.60;;
12892;SDS011;6514;48.606;9.222;2022-12-22T11:25:36;5.93;;;2.00;;
12892;SDS011;6514;48.606;9.222;2022-12-22T11:28:16;7.30;;;1.73;;
12892;SDS011;6514;48.606;9.222;2022-12-22T11:30:58;6.13;;;1.50;;
12892;SDS011;6514;48.606;9.222;2022-12-22T11:33:40;6.50;;;1.77;;
12892;SDS011;6514;48.606;9.222;2022-12-22T11:36:20;8.63;;;2.07;;
12892;SDS011;6514;48.606;9.222;2022-12-22T11:38:54;8.50;;;1.60;;
12892;SDS011;6514;48.606;9.222;2022-12-22T11:41:30;4.90;;;1.90;;
12892;SDS011;6514;48.606;9.222;2022-12-22T11:44:28;9.17;;;1.97;;
12892;SDS011;6514;48.606;9.222;2022-12-22T11:47:07;5.10;;;1.63;;
12892;SDS011;6514;48.606;9.222;2022-12-22T11:49:52;7.17;;;1.53;;
12892;SDS011;6514;48.606;9.222;2022-12-22T11:52:41;8.23;;;1.63;;
12892;SDS011;6514;48.606;9.222;2022-12-22T11:55:23;8.63;;;1.80;;
12892;SDS011;6514;48.606;9.222;2022-12-22T11:57:57;9.00;;;1.63;;
12892;SDS011;6514;48.606;9.222;2022-12-22T12:00:38;6.67;;;1.93;;
12892;SDS011;6514;48.606;9.222;2022-12-22T12:03:22;7.20;;;1.80;;
12892;SDS011;6514;48.606;9.222;2022-12-22T12:06:21;3.67;;;1.53;;
12892;SDS011;6514;48.606;9.222;2022-12-22T12:09:02;7.97;;;1.77;;
12892;SDS011;6514;48.606;9.222;2022-12-22T12:11:37;5.70;;;1.70;;
12892;SDS011;6514;48.606;9.222;2022-12-22T12:14:12;4.60;;;1.70;;
12892;SDS011;6514;48.606;9.222;2022-12-22T12:16:45;7.43;;;2.27;;
12892;SDS011;6514;48.606;9.222;2022-12-22T12:22:20;2.83;;;1.30;;
12892;SDS011;6514;48.606;9.222;2022-12-22T12:25:00;7.37;;;1.90;;
12892;SDS011;6514;48.606;9.222;2022-12-22T12:27:48;4.80;;;1.47;;
12892;SDS011;6514;48.606;9.222;2022-12-22T12:30:23;6.23;;;1.70;;
12892;SDS011;6514;48.606;9.222;2022-12-22T12:32:51;6.13;;;1.70;;
12892;SDS011;6514;48.606;9.222;2022-12-22T12:35:33;7.13;;;2.10;;
12892;SDS011;6514;48.606;9.222;2022-12-22T12:38:11;4.83;;;1.60;;
12892;SDS011;6514;48.606;9.222;2022-12-22T12:40:47;5.27;;;1.67;;
12892;SDS011;6514;48.606;9.222;2022-12-22T12:43:18;5.77;;;1.67;;
12892;SDS011;6514;48.606;9.222;2022-12-22T12:45:46;3.53;;;1.63;;
12892;SDS011;6514;48.606;9.222;2022-12-22T12:59:54;3.73;;;1.40;;
12892;SDS011;6514;48.606;9.222;2022-12-22T13:02:29;5.57;;;1.50;;
12892;SDS011;6514;48.606;9.222;2022-12-22T13:05:09;6.13;;;1.63;;
12892;SDS011;6514;48.606;9.222;2022-12-22T13:08:04;9.13;;;1.67;;
12892;SDS011;6514;48.606;9.222;2022-12-22T13:10:34;6.97;;;2.10;;
12892;SDS011;6514;48.606;9.222;2022-12-22T13:13:03;7.50;;;1.63;;
12892;SDS011;6514;48.606;9.222;2022-12-22T13:15:31;10.20;;;1.90;;
12892;SDS011;6514;48.606;9.222;2022-12-22T13:17:59;8.90;;;2.03;;
12892;SDS011;6514;48.606;9.222;2022-12-22T13:20:28;6.67;;;1.77;;
12892;SDS011;6514;48.606;9.222;2022-12-22T13:22:58;7.10;;;2.30;;
12892;SDS011;6514;48.606;9.222;2022-12-22T13:25:33;8.20;;;2.30;;
12892;SDS011;6514;48.606;9.222;2022-12-22T13:28:11;6.90;;;1.97;;
12892;SDS011;6514;48.606;9.222;2022-12-22T13:30:44;8.77;;;1.80;;
12892;SDS011;6514;48.606;9.222;2022-12-22T13:33:13;8.40;;;2.57;;
12892;SDS011;6514;48.606;9.222;2022-12-22T13:35:43;9.07;;;2.47;;
12892;SDS011;6514;48.606;9.222;2022-12-22T13:38:29;8.33;;;2.40;;
12892;SDS011;6514;48.606;9.222;2022-12-22T13:40:59;11.57;;;2.27;;
12892;SDS011;6514;48.606;9.222;2022-12-22T13:43:29;7.13;;;2.03;;
12892;SDS011;6514;48.606;9.222;2022-12-22T13:45:57;10.93;;;2.43;;
12892;SDS011;6514;48.606;9.222;2022-12-22T13:48:28;5.47;;;1.80;;
12892;SDS011;6514;48.606;9.222;2022-12-22T13:51:02;6.30;;;2.10;;
12892;SDS011;6514;48.606;9.222;2022-12-22T13:53:32;7.00;;;2.23;;
12892;SDS011;6514;48.606;9.222;2022-12-22T13:56:05;9.93;;;2.40;;
12892;SDS011;6514;48.606;9.222;2022-12-22T13:58:35;8.73;;;2.63;;
12892;SDS011;6514;48.606;9.222;2022-12-22T14:01:12;7.70;;;2.03;;
12892;SDS011;6514;48.606;9.222;2022-12-22T14:03:45;10.87;;;2.60;;
12892;SDS011;6514;48.606;9.222;2022-12-22T14:06:17;10.80;;;2.33;;
12892;SDS011;6514;48.606;9.222;2022-12-22T14:08:45;6.97;;;1.77;;
12892;SDS011;6514;48.606;9.222;2022-12-22T14:11:13;10.53;;;2.20;;
12892;SDS011;6514;48.606;9.222;2022-12-22T14:13:41;8.40;;;2.30;;
12892;SDS011;6514;48.606;9.222;2022-12-22T14:16:09;8.07;;;2.30;;
12892;SDS011;6514;48.606;9.222;2022-12-22T14:18:38;8.97;;;1.97;;
12892;SDS011;6514;48.606;9.222;2022-12-22T14:21:06;10.10;;;2.43;;
12892;SDS011;6514;48.606;9.222;2022-12-22T14:23:36;7.50;;;2.03;;
12892;SDS011;6514;48.606;9.222;2022-12-22T14:26:05;8.10;;;2.40;;
12892;SDS011;6514;48.606;9.222;2022-12-22T14:28:37;9.10;;;2.50;;
12892;SDS011;6514;48.606;9.222;2022-12-22T14:31:07;6.43;;;1.93;;
12892;SDS011;6514;48.606;9.222;2022-12-22T14:33:37;8.97;;;2.77;;
12892;SDS011;6514;48.606;9.222;2022-12-22T14:36:05;14.80;;;2.97;;
12892;SDS011;6514;48.606;9.222;2022-12-22T14:38:45;12.20;;;3.00;;
12892;SDS011;6514;48.606;9.222;2022-12-22T14:41:16;12.17;;;2.70;;
12892;SDS011;6514;48.606;9.222;2022-12-22T14:44:04;13.13;;;3.10;;
12892;SDS011;6514;48.606;9.222;2022-12-22T14:46:32;11.10;;;3.07;;
12892;SDS011;6514;48.606;9.222;2022-12-22T14:48:59;10.03;;;3.10;;
12892;SDS011;6514;48.606;9.222;2022-12-22T14:51:26;10.80;;;2.60;;
12892;SDS011;6514;48.606;9.222;2022-12-22T14:53:54;9.37;;;2.23;;
12892;SDS011;6514;48.606;9.222;2022-12-22T14:56:23;13.57;;;2.60;;
12892;SDS011;6514;48.606;9.222;2022-12-22T14:58:51;11.23;;;2.80;;
12892;SDS011;6514;48.606;9.222;2022-12-22T15:01:35;9.43;;;2.63;;
12892;SDS011;6514;48.606;9.222;2022-12-22T15:04:04;9.13;;;2.03;;
12892;SDS011;6514;48.606;9.222;2022-12-22T15:06:34;8.40;;;2.27;;
12892;SDS011;6514;48.606;9.222;2022-12-22T15:09:23;8.57;;;2.60;;
12892;SDS011;6514;48.606;9.222;2022-12-22T15:11:52;8.17;;;2.30;;
12892;SDS011;6514;48.606;9.222;2022-12-22T15:14:23;11.40;;;2.47;;
12892;SDS011;6514;48.606;9.222;2022-12-22T15:16:54;11.17;;;2.43;;
12892;SDS011;6514;48.606;9.222;2022-12-22T15:19:24;13.87;;;2.80;;
12892;SDS011;6514;48.606;9.222;2022-12-22T15:21:54;10.40;;;2.83;;
12892;SDS011;6514;48.606;9.222;2022-12-22T15:24:21;12.57;;;2.50;;
12892;SDS011;6514;48.606;9.222;2022-12-22T15:26:48;7.63;;;2.53;;
12892;SDS011;6514;48.606;9.222;2022-12-22T15:29:15;7.93;;;2.27;;
12892;SDS011;6514;48.606;9.222;2022-12-22T15:31:44;9.70;;;2.50;;
12892;SDS011;6514;48.606;9.222;2022-12-22T15:34:11;13.07;;;2.80;;
12892;SDS011;6514;48.606;9.222;2022-12-22T15:36:40;10.63;;;2.43;;
12892;SDS011;6514;48.606;9.222;2022-12-22T15:39:13;6.80;;;1.90;;
12892;SDS011;6514;48.606;9.222;2022-12-22T15:41:41;12.67;;;2.80;;
12892;SDS011;6514;48.606;9.222;2022-12-22T15:44:09;9.17;;;2.60;;
12892;SDS011;6514;48.606;9.222;2022-12-22T15:46:36;8.90;;;2.73;;
12892;SDS011;6514;48.606;9.222;2022-12-22T15:49:07;8.73;;;2.70;;
12892;SDS011;6514;48.606;9.222;2022-12-22T15:51:39;6.33;;;2.03;;
12892;SDS011;6514;48.606;9.222;2022-12-22T15:54:07;11.33;;;2.57;;
12892;SDS011;6514;48.606;9.222;2022-12-22T15:56:38;9.43;;;2.60;;
12892;SDS011;6514;48.606;9.222;2022-12-22T15:59:05;10.03;;;2.70;;